Time,TemperatureF,DewpointF,PressureIn,WindDirection,WindDirectionDegrees,WindSpeedMPH,WindSpeedGustMPH,Humidity,HourlyPrecipIn,Conditions,Clouds,dailyrainin,SoftwareType,DateUTC
2013-07-23 00:01:00,74.4,37.3,29.66,South,181,0.0,0.0,26,0.00,,CLR,0.00,VWS V14.01,2013-07-23 07:01:00,
2013-07-23 00:06:00,74.6,37.5,29.66,South,181,0.0,0.0,26,0.00,,CLR,0.00,VWS V14.01,2013-07-23 07:06:00,
2013-07-23 00:11:00,74.2,38.1,29.66,South,181,0.0,0.0,27,0.00,,CLR,0.00,VWS V14.01,2013-07-23 07:11:00,
2013-07-23 00:16:00,73.9,38.8,29.66,South,181,0.0,0.0,28,0.00,,CLR,0.00,VWS V14.01,2013-07-23 07:16:00,
2013-07-23 00:21:00,73.5,37.5,29.66,South,181,0.0,1.0,27,0.00,,CLR,0.00,VWS V14.01,2013-07-23 07:21:00,
2013-07-23 00:26:00,73.2,38.2,29.66,South,181,0.0,1.0,28,0.00,,CLR,0.00,VWS V14.01,2013-07-23 07:26:00,
2013-07-23 00:31:00,72.7,37.8,29.66,South,181,0.0,0.0,28,0.00,,CLR,0.00,VWS V14.01,2013-07-23 07:31:00,
2013-07-23 00:36:00,72.5,37.6,29.66,South,181,0.0,0.0,28,0.00,,CLR,0.00,VWS V14.01,2013-07-23 07:36:00,
2013-07-23 00:42:00,72.5,37.6,29.66,South,181,0.0,0.0,28,0.00,,CLR,0.00,VWS V14.01,2013-07-23 07:42:00,
2013-07-23 00:47:00,72.5,38.5,29.67,South,181,0.0,0.0,29,0.00,,CLR,0.00,VWS V14.01,2013-07-23 07:47:00,
2013-07-23 00:52:00,72.3,38.3,29.67,South,181,0.0,2.0,29,0.00,,CLR,0.00,VWS V14.01,2013-07-23 07:52:00,
2013-07-23 00:57:00,72.1,38.1,29.67,South,181,0.0,2.0,29,0.00,,CLR,0.00,VWS V14.01,2013-07-23 07:57:00,
2013-07-23 01:02:00,72.3,37.4,29.67,South,181,0.0,2.0,28,0.00,,CLR,0.00,VWS V14.01,2013-07-23 08:02:00,
2013-07-23 01:07:00,72.3,37.4,29.67,South,181,0.0,2.0,28,0.00,,CLR,0.00,VWS V14.01,2013-07-23 08:07:00,
2013-07-23 01:12:00,72.5,37.6,29.67,South,181,0.0,2.0,28,0.00,,CLR,0.00,VWS V14.01,2013-07-23 08:12:00,
2013-07-23 01:17:00,72.5,37.6,29.67,South,181,2.0,3.0,28,0.00,,CLR,0.00,VWS V14.01,2013-07-23 08:17:00,
2013-07-23 01:22:00,72.5,36.7,29.67,South,181,0.0,3.0,27,0.00,,CLR,0.00,VWS V14.01,2013-07-23 08:22:00,
2013-07-23 01:27:00,72.3,37.4,29.67,South,181,0.0,3.0,28,0.00,,CLR,0.00,VWS V14.01,2013-07-23 08:27:00,
2013-07-23 01:32:00,72.3,37.4,29.67,South,181,0.0,0.0,28,0.00,,CLR,0.00,VWS V14.01,2013-07-23 08:32:00,
2013-07-23 01:37:00,72.1,37.2,29.67,South,181,0.0,0.0,28,0.00,,CLR,0.00,VWS V14.01,2013-07-23 08:37:00,
2013-07-23 01:42:00,72.0,37.1,29.67,South,181,0.0,0.0,28,0.00,,CLR,0.00,VWS V14.01,2013-07-23 08:42:00,
2013-07-23 01:48:00,71.8,37.9,29.67,South,181,0.0,0.0,29,0.00,,CLR,0.00,VWS V14.01,2013-07-23 08:48:00,
2013-07-23 01:53:00,71.1,38.1,29.67,South,181,0.0,0.0,30,0.00,,CLR,0.00,VWS V14.01,2013-07-23 08:53:00,
2013-07-23 01:58:00,70.1,38.9,29.67,South,181,0.0,0.0,32,0.00,,CLR,0.00,VWS V14.01,2013-07-23 08:58:00,
2013-07-23 02:03:00,69.6,38.5,29.68,South,181,0.0,0.0,32,0.00,,CLR,0.00,VWS V14.01,2013-07-23 09:03:00,
2013-07-23 02:08:00,69.9,37.9,29.68,South,181,0.0,0.0,31,0.00,,CLR,0.00,VWS V14.01,2013-07-23 09:08:00,
2013-07-23 02:13:00,69.8,39.4,29.68,South,181,0.0,0.0,33,0.00,,CLR,0.00,VWS V14.01,2013-07-23 09:13:00,
2013-07-23 02:18:00,69.4,39.8,29.67,South,181,0.0,0.0,34,0.00,,CLR,0.00,VWS V14.01,2013-07-23 09:18:00,
2013-07-23 02:23:00,69.1,38.8,29.67,South,181,1.0,2.0,33,0.00,,CLR,0.00,VWS V14.01,2013-07-23 09:23:00,
2013-07-23 02:28:00,69.3,39.0,29.67,South,181,0.0,2.0,33,0.00,,CLR,0.00,VWS V14.01,2013-07-23 09:28:00,
2013-07-23 02:33:00,69.4,39.1,29.67,South,181,0.0,0.0,33,0.00,,CLR,0.00,VWS V14.01,2013-07-23 09:33:00,
2013-07-23 02:39:00,69.4,39.8,29.67,South,181,0.0,1.0,34,0.00,,CLR,0.00,VWS V14.01,2013-07-23 09:39:00,
2013-07-23 02:44:00,69.6,38.5,29.68,South,181,0.0,1.0,32,0.00,,CLR,0.00,VWS V14.01,2013-07-23 09:44:00,
2013-07-23 02:49:00,69.9,37.9,29.68,South,181,0.0,2.0,31,0.00,,CLR,0.00,VWS V14.01,2013-07-23 09:49:00,
2013-07-23 02:54:00,70.1,38.1,29.68,South,181,0.0,2.0,31,0.00,,CLR,0.00,VWS V14.01,2013-07-23 09:54:00,
2013-07-23 02:59:00,70.3,38.3,29.68,South,181,0.0,2.0,31,0.00,,CLR,0.00,VWS V14.01,2013-07-23 09:59:00,
2013-07-23 03:04:00,70.4,37.5,29.68,South,181,0.0,4.0,30,0.00,,CLR,0.00,VWS V14.01,2013-07-23 10:04:00,
2013-07-23 03:09:00,70.3,38.3,29.68,South,181,0.0,4.0,31,0.00,,CLR,0.00,VWS V14.01,2013-07-23 10:09:00,
2013-07-23 03:14:00,70.1,38.1,29.68,South,181,0.0,4.0,31,0.00,,CLR,0.00,VWS V14.01,2013-07-23 10:14:00,
2013-07-23 03:19:00,70.1,38.1,29.68,South,181,0.0,5.0,31,0.00,,CLR,0.00,VWS V14.01,2013-07-23 10:19:00,
2013-07-23 03:24:00,70.1,38.1,29.68,South,181,0.0,5.0,31,0.00,,CLR,0.00,VWS V14.01,2013-07-23 10:24:00,
2013-07-23 03:29:00,70.1,38.1,29.67,South,181,0.0,0.0,31,0.00,,CLR,0.00,VWS V14.01,2013-07-23 10:29:00,
2013-07-23 03:34:00,70.1,38.1,29.67,South,184,0.0,5.0,31,0.00,,CLR,0.00,VWS V14.01,2013-07-23 10:34:00,
2013-07-23 03:39:00,70.3,39.1,29.67,South,184,0.0,5.0,32,0.00,,CLR,0.00,VWS V14.01,2013-07-23 10:39:00,
2013-07-23 03:45:00,70.3,38.3,29.68,South,184,0.0,0.0,31,0.00,,CLR,0.00,VWS V14.01,2013-07-23 10:45:00,
2013-07-23 03:50:00,70.1,39.7,29.68,South,184,0.0,0.0,33,0.00,,CLR,0.00,VWS V14.01,2013-07-23 10:50:00,
2013-07-23 03:55:00,69.6,40.0,29.68,South,184,0.0,3.0,34,0.00,,CLR,0.00,VWS V14.01,2013-07-23 10:55:00,
2013-07-23 04:00:00,69.3,41.9,29.68,South,184,0.0,0.0,37,0.00,,CLR,0.00,VWS V14.01,2013-07-23 11:00:00,
2013-07-23 04:05:00,68.8,41.5,29.68,South,184,0.0,0.0,37,0.00,,CLR,0.00,VWS V14.01,2013-07-23 11:05:00,
2013-07-23 04:10:00,68.3,40.3,29.68,South,184,0.0,3.0,36,0.00,,CLR,0.00,VWS V14.01,2013-07-23 11:10:00,
2013-07-23 04:15:00,67.8,40.6,29.69,South,184,0.0,0.0,37,0.00,,CLR,0.00,VWS V14.01,2013-07-23 11:15:00,
2013-07-23 04:20:00,67.4,39.5,29.69,South,184,0.0,3.0,36,0.00,,CLR,0.00,VWS V14.01,2013-07-23 11:20:00,
2013-07-23 04:25:00,67.3,40.8,29.69,South,184,2.0,3.0,38,0.00,,CLR,0.00,VWS V14.01,2013-07-23 11:25:00,
2013-07-23 04:30:00,67.1,40.7,29.69,South,184,0.0,0.0,38,0.00,,CLR,0.00,VWS V14.01,2013-07-23 11:30:00,
2013-07-23 04:36:00,66.8,40.4,29.69,South,184,0.0,2.0,38,0.00,,CLR,0.00,VWS V14.01,2013-07-23 11:36:00,
2013-07-23 04:41:00,66.9,39.8,29.69,South,184,0.0,2.0,37,0.00,,CLR,0.00,VWS V14.01,2013-07-23 11:41:00,
2013-07-23 04:46:00,67.1,39.3,29.70,South,184,0.0,3.0,36,0.00,,CLR,0.00,VWS V14.01,2013-07-23 11:46:00,
2013-07-23 04:51:00,67.3,40.2,29.70,South,184,0.0,3.0,37,0.00,,CLR,0.00,VWS V14.01,2013-07-23 11:51:00,
2013-07-23 04:56:00,67.1,41.3,29.70,South,184,0.0,3.0,39,0.00,,CLR,0.00,VWS V14.01,2013-07-23 11:56:00,
2013-07-23 05:01:00,66.8,40.4,29.70,South,184,0.0,0.0,38,0.00,,CLR,0.00,VWS V14.01,2013-07-23 12:01:00,
2013-07-23 05:06:00,66.4,40.7,29.70,South,184,0.0,0.0,39,0.00,,CLR,0.00,VWS V14.01,2013-07-23 12:06:00,
2013-07-23 05:11:00,66.3,42.5,29.70,South,184,0.0,0.0,42,0.00,,CLR,0.00,VWS V14.01,2013-07-23 12:11:00,
2013-07-23 05:16:00,66.0,41.0,29.71,South,184,0.0,0.0,40,0.00,,CLR,0.00,VWS V14.01,2013-07-23 12:16:00,
2013-07-23 05:21:00,65.8,41.5,29.71,South,184,0.0,0.0,41,0.00,,CLR,0.00,VWS V14.01,2013-07-23 12:21:00,
2013-07-23 05:26:00,65.3,41.0,29.71,South,184,0.0,0.0,41,0.00,,CLR,0.00,VWS V14.01,2013-07-23 12:26:00,
2013-07-23 05:32:00,65.2,40.9,29.72,South,184,0.0,0.0,41,0.00,,CLR,0.00,VWS V14.01,2013-07-23 12:32:00,
2013-07-23 05:37:00,64.8,41.8,29.72,South,184,0.0,0.0,43,0.00,,CLR,0.00,VWS V14.01,2013-07-23 12:37:00,
2013-07-23 05:42:00,64.5,43.3,29.72,South,184,0.0,0.0,46,0.00,,CLR,0.00,VWS V14.01,2013-07-23 12:42:00,
2013-07-23 05:47:00,63.9,44.4,29.72,South,184,0.0,1.0,49,0.00,,CLR,0.00,VWS V14.01,2013-07-23 12:47:00,
2013-07-23 05:52:00,63.2,44.3,29.72,South,184,0.0,1.0,50,0.00,,CLR,0.00,VWS V14.01,2013-07-23 12:52:00,
2013-07-23 05:57:00,62.7,43.8,29.72,South,184,0.0,1.0,50,0.00,,CLR,0.00,VWS V14.01,2013-07-23 12:57:00,
2013-07-23 06:02:00,62.6,43.7,29.73,South,184,0.0,0.0,50,0.00,,CLR,0.00,VWS V14.01,2013-07-23 13:02:00,
2013-07-23 06:07:00,62.3,44.0,29.73,South,184,0.0,0.0,51,0.00,,CLR,0.00,VWS V14.01,2013-07-23 13:07:00,
2013-07-23 06:12:00,62.4,43.5,29.73,South,184,0.0,0.0,50,0.00,,CLR,0.00,VWS V14.01,2013-07-23 13:12:00,
2013-07-23 06:17:00,63.1,43.1,29.73,South,184,0.0,0.0,48,0.00,,CLR,0.00,VWS V14.01,2013-07-23 13:17:00,
2013-07-23 06:22:00,63.5,42.9,29.73,South,184,0.0,0.0,47,0.00,,CLR,0.00,VWS V14.01,2013-07-23 13:22:00,
2013-07-23 06:28:00,64.3,43.1,29.73,South,184,0.0,2.0,46,0.00,,CLR,0.00,VWS V14.01,2013-07-23 13:28:00,
2013-07-23 06:33:00,64.7,42.9,29.74,South,184,0.0,0.0,45,0.00,,CLR,0.00,VWS V14.01,2013-07-23 13:33:00,
2013-07-23 06:38:00,65.0,43.2,29.74,South,184,0.0,0.0,45,0.00,,CLR,0.00,VWS V14.01,2013-07-23 13:38:00,
2013-07-23 06:43:00,65.8,42.1,29.74,South,184,0.0,0.0,42,0.00,,CLR,0.00,VWS V14.01,2013-07-23 13:43:00,
2013-07-23 06:48:00,66.8,42.4,29.74,South,184,0.0,0.0,41,0.00,,CLR,0.00,VWS V14.01,2013-07-23 13:48:00,
2013-07-23 06:53:00,67.6,41.1,29.74,South,184,0.0,1.0,38,0.00,,CLR,0.00,VWS V14.01,2013-07-23 13:53:00,
2013-07-23 06:58:00,67.9,41.4,29.74,South,184,0.0,1.0,38,0.00,,CLR,0.00,VWS V14.01,2013-07-23 13:58:00,
2013-07-23 07:03:00,68.3,41.7,29.74,South,182,1.0,5.0,38,0.00,,CLR,0.00,VWS V14.01,2013-07-23 14:03:00,
2013-07-23 07:08:00,68.8,41.5,29.74,South,182,0.0,5.0,37,0.00,,CLR,0.00,VWS V14.01,2013-07-23 14:08:00,
2013-07-23 07:13:00,68.9,42.3,29.74,South,186,0.0,5.0,38,0.00,,CLR,0.00,VWS V14.01,2013-07-23 14:13:00,
2013-07-23 07:18:00,69.4,41.3,29.74,South,185,0.0,2.0,36,0.00,,CLR,0.00,VWS V14.01,2013-07-23 14:18:00,
2013-07-23 07:24:00,69.9,41.0,29.74,SSE,157,0.0,6.0,35,0.00,,CLR,0.00,VWS V14.01,2013-07-23 14:24:00,
2013-07-23 07:29:00,70.3,41.4,29.74,South,171,0.0,6.0,35,0.00,,CLR,0.00,VWS V14.01,2013-07-23 14:29:00,
2013-07-23 07:34:00,70.4,41.5,29.74,SSE,164,2.0,5.0,35,0.00,,CLR,0.00,VWS V14.01,2013-07-23 14:34:00,
2013-07-23 07:39:00,70.8,41.8,29.74,SSE,167,0.0,6.0,35,0.00,,CLR,0.00,VWS V14.01,2013-07-23 14:39:00,
2013-07-23 07:44:00,70.9,41.9,29.75,South,189,0.0,6.0,35,0.00,,CLR,0.00,VWS V14.01,2013-07-23 14:44:00,
2013-07-23 07:49:00,71.1,41.3,29.75,South,169,6.0,11.0,34,0.00,,CLR,0.00,VWS V14.01,2013-07-23 14:49:00,
2013-07-23 07:54:00,71.3,41.5,29.75,SSE,164,2.0,11.0,34,0.00,,CLR,0.00,VWS V14.01,2013-07-23 14:54:00,
2013-07-23 07:59:00,71.6,41.0,29.75,SE,145,0.0,0.0,33,0.00,,CLR,0.00,VWS V14.01,2013-07-23 14:59:00,
2013-07-23 08:04:00,72.0,42.1,29.75,South,179,1.0,6.0,34,0.00,,CLR,0.00,VWS V14.01,2013-07-23 15:04:00,
2013-07-23 08:09:00,72.1,42.2,29.75,SE,138,0.0,8.0,34,0.00,,CLR,0.00,VWS V14.01,2013-07-23 15:09:00,
2013-07-23 08:14:00,72.5,42.6,29.76,SSE,165,0.0,5.0,34,0.00,,CLR,0.00,VWS V14.01,2013-07-23 15:14:00,
2013-07-23 08:20:00,72.7,43.5,29.76,SSW,206,0.0,6.0,35,0.00,,CLR,0.00,VWS V14.01,2013-07-23 15:20:00,
2013-07-23 08:25:00,72.8,43.6,29.76,SSE,168,0.0,8.0,35,0.00,,CLR,0.00,VWS V14.01,2013-07-23 15:25:00,
2013-07-23 08:30:00,73.0,44.5,29.76,SSE,155,0.0,0.0,36,0.00,,CLR,0.00,VWS V14.01,2013-07-23 15:30:00,
2013-07-23 08:34:00,73.7,45.1,29.76,SSE,155,0.0,1.0,36,0.00,,CLR,0.00,VWS V14.01,2013-07-23 15:34:00,
2013-07-23 08:39:00,73.7,44.4,29.76,SSW,192,1.0,4.0,35,0.00,,CLR,0.00,VWS V14.01,2013-07-23 15:39:00,
2013-07-23 08:44:00,73.7,45.8,29.76,SSW,202,0.0,0.0,37,0.00,,CLR,0.00,VWS V14.01,2013-07-23 15:44:00,
2013-07-23 08:49:00,73.9,45.3,29.76,SSW,208,0.0,9.0,36,0.00,,CLR,0.00,VWS V14.01,2013-07-23 15:49:00,
2013-07-23 08:54:00,74.0,46.1,29.76,South,175,0.0,9.0,37,0.00,,CLR,0.00,VWS V14.01,2013-07-23 15:54:00,
2013-07-23 09:00:00,74.6,46.6,29.76,SSE,158,0.0,0.0,37,0.00,,CLR,0.00,VWS V14.01,2013-07-23 16:00:00,
2013-07-23 09:05:00,74.7,45.3,29.76,SSE,164,5.0,8.0,35,0.00,,CLR,0.00,VWS V14.01,2013-07-23 16:05:00,
2013-07-23 09:10:00,74.7,46.0,29.76,SSW,198,0.0,8.0,36,0.00,,CLR,0.00,VWS V14.01,2013-07-23 16:10:00,
2013-07-23 09:15:00,75.1,45.6,29.77,SW,223,0.0,0.0,35,0.00,,CLR,0.00,VWS V14.01,2013-07-23 16:15:00,
2013-07-23 09:20:00,75.3,45.8,29.77,South,171,0.0,7.0,35,0.00,,CLR,0.00,VWS V14.01,2013-07-23 16:20:00,
2013-07-23 09:25:00,75.6,46.8,29.77,SSE,155,0.0,7.0,36,0.00,,CLR,0.00,VWS V14.01,2013-07-23 16:25:00,
2013-07-23 09:30:00,76.3,47.4,29.76,South,175,0.0,0.0,36,0.00,,CLR,0.00,VWS V14.01,2013-07-23 16:30:00,
2013-07-23 09:35:00,77.2,47.5,29.76,SSW,192,0.0,10.0,35,0.00,,CLR,0.00,VWS V14.01,2013-07-23 16:35:00,
2013-07-23 09:40:00,77.4,46.1,29.76,South,169,0.0,10.0,33,0.00,,CLR,0.00,VWS V14.01,2013-07-23 16:40:00,
2013-07-23 09:45:00,77.7,47.9,29.76,South,182,2.0,2.0,35,0.00,,CLR,0.00,VWS V14.01,2013-07-23 16:45:00,
2013-07-23 09:50:00,78.3,45.2,29.76,SSE,168,1.0,5.0,31,0.00,,CLR,0.00,VWS V14.01,2013-07-23 16:50:00,
2013-07-23 09:56:00,78.3,46.0,29.76,SSW,196,0.0,5.0,32,0.00,,CLR,0.00,VWS V14.01,2013-07-23 16:56:00,
2013-07-23 10:01:00,79.0,47.5,29.76,South,175,0.0,0.0,33,0.00,,CLR,0.00,VWS V14.01,2013-07-23 17:01:00,
2013-07-23 10:06:00,79.8,48.2,29.76,South,174,0.0,0.0,33,0.00,,CLR,0.00,VWS V14.01,2013-07-23 17:06:00,
2013-07-23 10:11:00,79.9,45.7,29.76,SSW,198,0.0,3.0,30,0.00,,CLR,0.00,VWS V14.01,2013-07-23 17:11:00,
2013-07-23 10:16:00,80.1,45.9,29.77,SSW,198,0.0,1.0,30,0.00,,CLR,0.00,VWS V14.01,2013-07-23 17:16:00,
2013-07-23 10:21:00,79.9,44.8,29.77,SSW,198,0.0,6.0,29,0.00,,CLR,0.00,VWS V14.01,2013-07-23 17:21:00,
2013-07-23 10:26:00,80.1,45.9,29.77,South,184,0.0,6.0,30,0.00,,CLR,0.00,VWS V14.01,2013-07-23 17:26:00,
2013-07-23 10:31:00,80.3,46.1,29.77,SSE,165,0.0,3.0,30,0.00,,CLR,0.00,VWS V14.01,2013-07-23 17:31:00,
2013-07-23 10:36:00,80.5,46.2,29.77,SSW,198,0.0,3.0,30,0.00,,CLR,0.00,VWS V14.01,2013-07-23 17:36:00,
2013-07-23 10:41:00,80.9,46.6,29.77,SSE,168,1.0,6.0,30,0.00,,CLR,0.00,VWS V14.01,2013-07-23 17:41:00,
2013-07-23 10:47:00,81.6,46.3,29.77,South,175,0.0,0.0,29,0.00,,CLR,0.00,VWS V14.01,2013-07-23 17:47:00,
2013-07-23 10:52:00,82.4,46.1,29.77,WNW,294,0.0,2.0,28,0.00,,CLR,0.00,VWS V14.01,2013-07-23 17:52:00,
2013-07-23 10:57:00,82.6,46.2,29.77,SE,130,2.0,6.0,28,0.00,,CLR,0.00,VWS V14.01,2013-07-23 17:57:00,
2013-07-23 11:02:00,82.6,45.3,29.76,SE,144,0.0,1.0,27,0.00,,CLR,0.00,VWS V14.01,2013-07-23 18:02:00,
2013-07-23 11:07:00,83.0,46.6,29.76,South,176,0.0,6.0,28,0.00,,CLR,0.00,VWS V14.01,2013-07-23 18:07:00,
2013-07-23 11:12:00,83.6,47.1,29.76,South,188,0.0,6.0,28,0.00,,CLR,0.00,VWS V14.01,2013-07-23 18:12:00,
2013-07-23 11:18:00,83.6,46.1,29.77,SSE,150,5.0,10.0,27,0.00,,CLR,0.00,VWS V14.01,2013-07-23 18:18:00,
2013-07-23 11:23:00,83.4,46.0,29.77,WSW,256,0.0,10.0,27,0.00,,CLR,0.00,VWS V14.01,2013-07-23 18:23:00,
2013-07-23 11:28:00,84.3,46.7,29.76,SW,230,0.0,10.0,27,0.00,,CLR,0.00,VWS V14.01,2013-07-23 18:28:00,
2013-07-23 11:33:00,85.3,46.6,29.76,SSW,200,0.0,1.0,26,0.00,,CLR,0.00,VWS V14.01,2013-07-23 18:33:00,
2013-07-23 11:38:00,85.5,45.7,29.76,WSW,244,0.0,4.0,25,0.00,,CLR,0.00,VWS V14.01,2013-07-23 18:38:00,
2013-07-23 11:44:00,85.7,45.9,29.76,West,272,0.0,4.0,25,0.00,,CLR,0.00,VWS V14.01,2013-07-23 18:44:00,
2013-07-23 11:49:00,85.9,47.1,29.76,SSW,196,0.0,6.0,26,0.00,,CLR,0.00,VWS V14.01,2013-07-23 18:49:00,
2013-07-23 11:54:00,86.5,46.5,29.76,SSW,196,0.0,6.0,25,0.00,,CLR,0.00,VWS V14.01,2013-07-23 18:54:00,
2013-07-23 12:00:00,87.4,45.1,29.75,WSW,246,0.0,1.0,23,0.00,,CLR,0.00,VWS V14.01,2013-07-23 19:00:00,
2013-07-23 12:05:00,88.0,46.7,29.75,South,169,0.0,1.0,24,0.00,,CLR,0.00,VWS V14.01,2013-07-23 19:05:00,
2013-07-23 12:10:00,88.2,44.6,29.75,SSE,167,0.0,1.0,22,0.00,,CLR,0.00,VWS V14.01,2013-07-23 19:10:00,
2013-07-23 12:15:00,88.0,44.4,29.75,SSE,160,0.0,0.0,22,0.00,,CLR,0.00,VWS V14.01,2013-07-23 19:15:00,
2013-07-23 12:20:00,88.2,44.6,29.75,SSE,158,0.0,5.0,22,0.00,,CLR,0.00,VWS V14.01,2013-07-23 19:20:00,
2013-07-23 12:25:00,88.6,43.7,29.75,West,260,0.0,5.0,21,0.00,,CLR,0.00,VWS V14.01,2013-07-23 19:25:00,
2013-07-23 12:30:00,88.6,42.4,29.75,SSE,154,0.0,0.0,20,0.00,,CLR,0.00,VWS V14.01,2013-07-23 19:30:00,
2013-07-23 12:35:00,89.0,44.0,29.75,SSE,154,1.0,1.0,21,0.00,,CLR,0.00,VWS V14.01,2013-07-23 19:35:00,
2013-07-23 12:40:00,89.3,45.5,29.75,SE,130,0.0,4.0,22,0.00,,CLR,0.00,VWS V14.01,2013-07-23 19:40:00,
2013-07-23 12:45:00,89.5,44.5,29.74,WNW,285,0.0,6.0,21,0.00,,CLR,0.00,VWS V14.01,2013-07-23 19:45:00,
2013-07-23 12:51:00,89.3,43.0,29.74,West,265,0.0,6.0,20,0.00,,CLR,0.00,VWS V14.01,2013-07-23 19:51:00,
2013-07-23 12:56:00,89.9,46.0,29.74,WSW,250,0.0,6.0,22,0.00,,CLR,0.00,VWS V14.01,2013-07-23 19:56:00,
2013-07-23 13:01:00,89.7,43.3,29.74,WNW,302,0.0,1.0,20,0.00,,CLR,0.00,VWS V14.01,2013-07-23 20:01:00,
2013-07-23 13:07:00,90.1,42.3,29.74,NW,308,0.0,1.0,19,0.00,,CLR,0.00,VWS V14.01,2013-07-23 20:07:00,
2013-07-23 13:12:00,90.7,44.2,29.74,NW,308,0.0,1.0,20,0.00,,CLR,0.00,VWS V14.01,2013-07-23 20:12:00,
2013-07-23 13:17:00,90.7,42.8,29.74,West,280,0.0,3.0,19,0.00,,CLR,0.00,VWS V14.01,2013-07-23 20:17:00,
2013-07-23 13:22:00,91.2,44.6,29.74,West,278,0.0,3.0,20,0.00,,CLR,0.00,VWS V14.01,2013-07-23 20:22:00,
2013-07-23 13:27:00,91.6,43.5,29.74,West,278,0.0,3.0,19,0.00,,CLR,0.00,VWS V14.01,2013-07-23 20:27:00,
2013-07-23 13:32:00,92.3,45.5,29.73,West,278,0.0,0.0,20,0.00,,CLR,0.00,VWS V14.01,2013-07-23 20:32:00,
2013-07-23 13:37:00,92.5,42.9,29.73,West,281,0.0,2.0,18,0.00,,FEW200,0.00,VWS V14.01,2013-07-23 20:37:00,
2013-07-23 13:42:00,92.3,45.5,29.73,WSW,246,0.0,2.0,20,0.00,,FEW200,0.00,VWS V14.01,2013-07-23 20:42:00,
2013-07-23 13:47:00,92.7,43.0,29.73,West,277,0.0,6.0,18,0.00,,FEW200,0.00,VWS V14.01,2013-07-23 20:47:00,
2013-07-23 13:53:00,92.7,44.5,29.73,West,280,0.0,6.0,19,0.00,,FEW200,0.00,VWS V14.01,2013-07-23 20:53:00,
2013-07-23 13:58:00,92.1,41.1,29.73,West,281,0.0,8.0,17,0.00,,FEW200,0.00,VWS V14.01,2013-07-23 20:58:00,
2013-07-23 14:03:00,92.1,41.1,29.73,West,281,0.0,0.0,17,0.00,,FEW200,0.00,VWS V14.01,2013-07-23 21:03:00,
2013-07-23 14:08:00,92.1,41.1,29.73,West,263,0.0,3.0,17,0.00,,FEW200,0.00,VWS V14.01,2013-07-23 21:08:00,
2013-07-23 14:13:00,92.7,43.0,29.72,NW,306,2.0,3.0,18,0.00,,FEW200,0.00,VWS V14.01,2013-07-23 21:13:00,
2013-07-23 14:18:00,92.9,44.6,29.72,SSW,193,0.0,7.0,19,0.00,,FEW200,0.00,VWS V14.01,2013-07-23 21:18:00,
2013-07-23 14:24:00,92.9,41.7,29.72,South,176,0.0,7.0,17,0.00,,FEW200,0.00,VWS V14.01,2013-07-23 21:24:00,
2013-07-23 14:29:00,92.5,42.9,29.72,SSE,160,0.0,7.0,18,0.00,,FEW200,0.00,VWS V14.01,2013-07-23 21:29:00,
2013-07-23 14:34:00,92.9,41.7,29.72,SSE,155,0.0,1.0,17,0.00,,FEW200,0.00,VWS V14.01,2013-07-23 21:34:00,
2013-07-23 14:39:00,93.8,42.4,29.72,NNW,328,0.0,1.0,17,0.00,,FEW200,0.00,VWS V14.01,2013-07-23 21:39:00,
2013-07-23 14:44:00,93.8,40.9,29.71,West,261,0.0,6.0,16,0.00,,FEW200,0.00,VWS V14.01,2013-07-23 21:44:00,
2013-07-23 14:49:00,93.8,43.9,29.71,SSW,198,0.0,12.0,18,0.00,,FEW200,0.00,VWS V14.01,2013-07-23 21:49:00,
2013-07-23 14:55:00,94.0,41.0,29.71,WSW,258,0.0,12.0,16,0.00,,FEW200,0.00,VWS V14.01,2013-07-23 21:55:00,
2013-07-23 15:01:00,94.0,39.4,29.70,South,182,0.0,1.0,15,0.00,,FEW200,0.00,VWS V14.01,2013-07-23 22:01:00,
2013-07-23 15:06:00,94.5,43.0,29.70,SE,137,0.0,3.0,17,0.00,,FEW200,0.00,VWS V14.01,2013-07-23 22:06:00,
2013-07-23 15:11:00,94.7,41.6,29.70,NW,305,0.0,3.0,16,0.00,,FEW200,0.00,VWS V14.01,2013-07-23 22:11:00,
2013-07-23 15:17:00,95.4,42.1,29.70,SSW,203,0.0,1.0,16,0.00,,FEW200,0.00,VWS V14.01,2013-07-23 22:17:00,
2013-07-23 15:22:00,94.7,39.9,29.70,SSW,200,0.0,8.0,15,0.00,,FEW200,0.00,VWS V14.01,2013-07-23 22:22:00,
2013-07-23 15:28:00,94.3,39.6,29.70,SE,130,0.0,8.0,15,0.00,,FEW200,0.00,VWS V14.01,2013-07-23 22:28:00,
2013-07-23 15:33:00,94.5,39.8,29.70,WSW,254,0.0,1.0,15,0.00,,FEW200,0.00,VWS V14.01,2013-07-23 22:33:00,
2013-07-23 15:38:00,93.8,39.2,29.70,West,274,2.0,8.0,15,0.00,,FEW200,0.00,VWS V14.01,2013-07-23 22:38:00,
2013-07-23 15:43:00,94.0,39.4,29.70,SSE,157,0.0,8.0,15,0.00,,FEW200,0.00,VWS V14.01,2013-07-23 22:43:00,
2013-07-23 15:48:00,94.5,39.8,29.69,NW,308,0.0,0.0,15,0.00,,FEW200,0.00,VWS V14.01,2013-07-23 22:48:00,
2013-07-23 15:53:00,94.7,39.9,29.69,SSE,150,0.0,2.0,15,0.00,,FEW200,0.00,VWS V14.01,2013-07-23 22:53:00,
2013-07-23 15:58:00,94.9,40.1,29.69,SE,140,1.0,3.0,15,0.00,,FEW200,0.00,VWS V14.01,2013-07-23 22:58:00,
2013-07-23 16:03:00,94.3,37.8,29.69,South,174,0.0,2.0,14,0.00,,FEW200,0.00,VWS V14.01,2013-07-23 23:03:00,
2013-07-23 16:08:00,93.8,40.9,29.69,West,271,0.0,2.0,16,0.00,,FEW200,0.00,VWS V14.01,2013-07-23 23:08:00,
2013-07-23 16:13:00,93.8,37.5,29.69,ESE,103,0.0,2.0,14,0.00,,FEW200,0.00,VWS V14.01,2013-07-23 23:13:00,
2013-07-23 16:18:00,93.6,37.3,29.69,WNW,284,0.0,1.0,14,0.00,,FEW200,0.00,VWS V14.01,2013-07-23 23:18:00,
2013-07-23 16:24:00,94.0,35.7,29.69,NE,47,0.0,1.0,13,0.00,,FEW200,0.00,VWS V14.01,2013-07-23 23:24:00,
2013-07-23 16:29:00,94.7,41.6,29.68,NE,47,0.0,1.0,16,0.00,,FEW200,0.00,VWS V14.01,2013-07-23 23:29:00,
2013-07-23 16:34:00,94.9,36.4,29.68,WNW,288,0.0,7.0,13,0.00,,FEW200,0.00,VWS V14.01,2013-07-23 23:34:00,
2013-07-23 16:39:00,94.9,38.3,29.68,WSW,248,0.0,7.0,14,0.00,,FEW200,0.00,VWS V14.01,2013-07-23 23:39:00,
2013-07-23 16:44:00,95.4,36.8,29.68,WNW,282,0.0,0.0,13,0.00,,FEW200,0.00,VWS V14.01,2013-07-23 23:44:00,
2013-07-23 16:50:00,96.1,37.4,29.68,WNW,291,0.0,0.0,13,0.00,,FEW200,0.00,VWS V14.01,2013-07-23 23:50:00,
2013-07-23 16:55:00,96.3,39.4,29.68,West,272,0.0,1.0,14,0.00,,FEW200,0.00,VWS V14.01,2013-07-23 23:55:00,
2013-07-23 17:00:00,96.1,41.0,29.68,SSW,202,0.0,0.0,15,0.00,,FEW200,0.00,VWS V14.01,2013-07-24 00:00:00,
2013-07-23 17:05:00,96.1,39.2,29.68,SSW,202,0.0,0.0,14,0.00,,FEW200,0.00,VWS V14.01,2013-07-24 00:05:00,
2013-07-23 17:10:00,95.9,39.1,29.68,SSW,202,0.0,3.0,14,0.00,,FEW200,0.00,VWS V14.01,2013-07-24 00:10:00,
2013-07-23 17:16:00,95.4,36.8,29.68,SSW,202,0.0,0.0,13,0.00,,FEW200,0.00,VWS V14.01,2013-07-24 00:16:00,
2013-07-23 17:21:00,95.6,37.0,29.68,SSW,202,0.0,0.0,13,0.00,,FEW200,0.00,VWS V14.01,2013-07-24 00:21:00,
2013-07-23 17:26:00,95.6,38.9,29.68,WNW,289,0.0,2.0,14,0.00,,FEW200,0.00,VWS V14.01,2013-07-24 00:26:00,
2013-07-23 17:31:00,95.4,38.7,29.68,West,274,0.0,0.0,14,0.00,,FEW200,0.00,VWS V14.01,2013-07-24 00:31:00,
2013-07-23 17:36:00,94.9,36.4,29.68,WNW,282,0.0,3.0,13,0.00,,FEW200,0.00,VWS V14.01,2013-07-24 00:36:00,
2013-07-23 17:41:00,93.8,35.6,29.68,South,169,0.0,3.0,13,0.00,,FEW200,0.00,VWS V14.01,2013-07-24 00:41:00,
2013-07-23 17:46:00,93.8,37.5,29.68,SSW,198,0.0,0.0,14,0.00,,FEW200,0.00,VWS V14.01,2013-07-24 00:46:00,
2013-07-23 17:51:00,93.6,35.4,29.68,South,174,0.0,1.0,13,0.00,,FEW200,0.00,VWS V14.01,2013-07-24 00:51:00,
2013-07-23 17:56:00,93.6,37.3,29.68,SW,217,0.0,1.0,14,0.00,,FEW200,0.00,VWS V14.01,2013-07-24 00:56:00,
2013-07-23 18:02:00,93.4,37.1,29.68,West,260,0.0,0.0,14,0.00,,FEW200,0.00,VWS V14.01,2013-07-24 01:02:00,
2013-07-23 18:07:00,92.9,36.7,29.68,WNW,296,0.0,6.0,14,0.00,,FEW200,0.00,VWS V14.01,2013-07-24 01:07:00,
2013-07-23 18:12:00,92.7,36.6,29.68,WNW,296,0.0,6.0,14,0.00,,FEW200,0.00,VWS V14.01,2013-07-24 01:12:00,
2013-07-23 18:17:00,92.5,36.4,29.67,WNW,302,0.0,1.0,14,0.00,,FEW200,0.00,VWS V14.01,2013-07-24 01:17:00,
2013-07-23 18:22:00,92.3,36.3,29.67,WNW,302,0.0,1.0,14,0.00,,FEW200,0.00,VWS V14.01,2013-07-24 01:22:00,
2013-07-23 18:27:00,92.3,36.3,29.67,WNW,288,0.0,6.0,14,0.00,,FEW200,0.00,VWS V14.01,2013-07-24 01:27:00,
2013-07-23 18:33:00,92.1,36.1,29.67,South,169,0.0,2.0,14,0.00,,FEW200,0.00,VWS V14.01,2013-07-24 01:33:00,
2013-07-23 18:38:00,91.8,35.9,29.67,South,169,0.0,2.0,14,0.00,,CLR,0.00,VWS V14.01,2013-07-24 01:38:00,
2013-07-23 18:43:00,92.1,36.1,29.67,South,169,0.0,2.0,14,0.00,,CLR,0.00,VWS V14.01,2013-07-24 01:43:00,
2013-07-23 18:48:00,92.3,36.3,29.67,South,169,0.0,0.0,14,0.00,,CLR,0.00,VWS V14.01,2013-07-24 01:48:00,
2013-07-23 18:53:00,92.1,34.2,29.67,South,169,0.0,0.0,13,0.00,,CLR,0.00,VWS V14.01,2013-07-24 01:53:00,
2013-07-23 18:58:00,91.8,35.9,29.67,South,169,0.0,3.0,14,0.00,,CLR,0.00,VWS V14.01,2013-07-24 01:58:00,
2013-07-23 19:04:00,92.1,36.1,29.67,South,169,0.0,0.0,14,0.00,,CLR,0.00,VWS V14.01,2013-07-24 02:04:00,
2013-07-23 19:09:00,92.3,38.0,29.67,South,169,0.0,0.0,15,0.00,,CLR,0.00,VWS V14.01,2013-07-24 02:09:00,
2013-07-23 19:14:00,91.8,35.9,29.66,South,169,0.0,1.0,14,0.00,,CLR,0.00,VWS V14.01,2013-07-24 02:14:00,
2013-07-23 19:19:00,92.1,34.2,29.66,South,169,0.0,0.0,13,0.00,,CLR,0.00,VWS V14.01,2013-07-24 02:19:00,
2013-07-23 19:24:00,92.1,37.9,29.66,South,169,0.0,0.0,15,0.00,,CLR,0.00,VWS V14.01,2013-07-24 02:24:00,
2013-07-23 19:29:00,91.8,35.9,29.66,South,169,0.0,0.0,14,0.00,,CLR,0.00,VWS V14.01,2013-07-24 02:29:00,
2013-07-23 19:34:00,92.1,37.9,29.66,South,169,0.0,0.0,15,0.00,,CLR,0.00,VWS V14.01,2013-07-24 02:34:00,
2013-07-23 19:40:00,91.6,39.1,29.66,South,169,0.0,0.0,16,0.00,,FEW200,0.00,VWS V14.01,2013-07-24 02:40:00,
2013-07-23 19:45:00,91.2,37.2,29.66,South,169,0.0,0.0,15,0.00,,FEW200,0.00,VWS V14.01,2013-07-24 02:45:00,
2013-07-23 19:50:00,90.5,38.2,29.66,South,169,0.0,1.0,16,0.00,,FEW200,0.00,VWS V14.01,2013-07-24 02:50:00,
2013-07-23 19:55:00,89.7,39.1,29.66,South,169,0.0,1.0,17,0.00,,FEW200,0.00,VWS V14.01,2013-07-24 02:55:00,
2013-07-23 20:00:00,89.0,40.0,29.67,South,169,0.0,0.0,18,0.00,,FEW200,0.00,VWS V14.01,2013-07-24 03:00:00,
2013-07-23 20:05:00,88.2,39.4,29.67,South,169,0.0,0.0,18,0.00,,FEW200,0.00,VWS V14.01,2013-07-24 03:05:00,
2013-07-23 20:11:00,87.6,41.6,29.67,South,169,0.0,0.0,20,0.00,,FEW200,0.00,VWS V14.01,2013-07-24 03:11:00,
2013-07-23 20:16:00,86.7,43.3,29.66,South,169,0.0,0.0,22,0.00,,FEW200,0.00,VWS V14.01,2013-07-24 03:16:00,
2013-07-23 20:21:00,85.5,41.2,29.66,South,169,0.0,0.0,21,0.00,,FEW200,0.00,VWS V14.01,2013-07-24 03:21:00,
2013-07-23 20:26:00,84.1,41.2,29.66,South,169,0.0,0.0,22,0.00,,FEW200,0.00,VWS V14.01,2013-07-24 03:26:00,
2013-07-23 20:32:00,83.0,42.5,29.67,South,169,0.0,0.0,24,0.00,,FEW200,0.00,VWS V14.01,2013-07-24 03:32:00,
2013-07-23 20:37:00,82.0,41.7,29.67,South,169,0.0,0.0,24,0.00,,FEW200,0.00,VWS V14.01,2013-07-24 03:37:00,
2013-07-23 20:43:00,81.4,43.3,29.67,South,169,0.0,0.0,26,0.00,,FEW200,0.00,VWS V14.01,2013-07-24 03:43:00,
2013-07-23 20:48:00,80.7,41.7,29.68,South,169,0.0,0.0,25,0.00,,FEW200,0.00,VWS V14.01,2013-07-24 03:48:00,
2013-07-23 20:53:00,79.9,42.0,29.68,South,169,0.0,0.0,26,0.00,,FEW200,0.00,VWS V14.01,2013-07-24 03:53:00,
2013-07-23 20:58:00,79.4,42.5,29.68,South,169,0.0,0.0,27,0.00,,FEW200,0.00,VWS V14.01,2013-07-24 03:58:00,
2013-07-23 21:01:00,79.2,41.4,29.68,South,169,0.0,0.0,26,0.00,,FEW200,0.00,VWS V14.01,2013-07-24 04:01:00,
2013-07-23 21:02:00,79.0,43.2,29.68,South,169,0.0,0.0,28,0.00,,FEW200,0.00,VWS V14.01,2013-07-24 04:02:00,
2013-07-23 21:07:00,78.6,41.9,29.68,South,169,0.0,0.0,27,0.00,,FEW200,0.00,VWS V14.01,2013-07-24 04:07:00,
2013-07-23 21:12:00,78.5,40.8,29.68,South,169,0.0,0.0,26,0.00,,FEW200,0.00,VWS V14.01,2013-07-24 04:12:00,
2013-07-23 21:17:00,77.9,41.3,29.68,South,169,0.0,0.0,27,0.00,,FEW200,0.00,VWS V14.01,2013-07-24 04:17:00,
2013-07-23 21:22:00,77.6,42.0,29.68,South,169,0.0,0.0,28,0.00,,FEW200,0.00,VWS V14.01,2013-07-24 04:22:00,
2013-07-23 21:27:00,77.2,42.5,29.68,South,169,0.0,0.0,29,0.00,,FEW200,0.00,VWS V14.01,2013-07-24 04:27:00,
2013-07-23 21:32:00,76.8,41.3,29.68,South,169,0.0,0.0,28,0.00,,FEW200,0.00,VWS V14.01,2013-07-24 04:32:00,
2013-07-23 21:37:00,76.5,40.1,29.68,South,169,0.0,0.0,27,0.00,,CLR,0.00,VWS V14.01,2013-07-24 04:37:00,
2013-07-23 21:42:00,76.3,42.6,29.68,South,169,0.0,0.0,30,0.00,,CLR,0.00,VWS V14.01,2013-07-24 04:42:00,
2013-07-23 21:47:00,75.8,43.0,29.69,South,169,0.0,0.0,31,0.00,,CLR,0.00,VWS V14.01,2013-07-24 04:47:00,
2013-07-23 21:52:00,75.4,42.7,29.69,South,169,0.0,0.0,31,0.00,,CLR,0.00,VWS V14.01,2013-07-24 04:52:00,
2013-07-23 21:58:00,75.3,40.9,29.69,South,169,0.0,0.0,29,0.00,,CLR,0.00,VWS V14.01,2013-07-24 04:58:00,
2013-07-23 22:03:00,75.3,40.9,29.69,South,169,0.0,0.0,29,0.00,,CLR,0.00,VWS V14.01,2013-07-24 05:03:00,
2013-07-23 22:08:00,75.1,42.4,29.69,South,169,0.0,0.0,31,0.00,,CLR,0.00,VWS V14.01,2013-07-24 05:08:00,
2013-07-23 22:13:00,74.7,42.9,29.69,South,169,0.0,0.0,32,0.00,,CLR,0.00,VWS V14.01,2013-07-24 05:13:00,
2013-07-23 22:18:00,74.4,43.5,29.68,South,169,0.0,0.0,33,0.00,,CLR,0.00,VWS V14.01,2013-07-24 05:18:00,
2013-07-23 22:23:00,74.0,43.9,29.68,South,169,0.0,0.0,34,0.00,,CLR,0.00,VWS V14.01,2013-07-24 05:23:00,
2013-07-23 22:28:00,73.9,43.0,29.68,South,169,0.0,0.0,33,0.00,,CLR,0.00,VWS V14.01,2013-07-24 05:28:00,
2013-07-23 22:33:00,73.7,42.8,29.68,South,169,0.0,0.0,33,0.00,,CLR,0.00,VWS V14.01,2013-07-24 05:33:00,
2013-07-23 22:38:00,73.5,43.4,29.68,South,169,0.0,0.0,34,0.00,,CLR,0.00,VWS V14.01,2013-07-24 05:38:00,
2013-07-23 22:43:00,73.2,45.4,29.67,South,169,0.0,0.0,37,0.00,,CLR,0.00,VWS V14.01,2013-07-24 05:43:00,
2013-07-23 22:48:00,73.0,45.9,29.67,South,169,0.0,0.0,38,0.00,,CLR,0.00,VWS V14.01,2013-07-24 05:48:00,
2013-07-23 22:53:00,72.7,43.5,29.67,South,169,0.0,0.0,35,0.00,,CLR,0.00,VWS V14.01,2013-07-24 05:53:00,
2013-07-23 22:59:00,72.5,44.1,29.68,South,169,0.0,0.0,36,0.00,,CLR,0.00,VWS V14.01,2013-07-24 05:59:00,
2013-07-23 23:04:00,72.1,43.0,29.68,South,169,0.0,0.0,35,0.00,,CLR,0.00,VWS V14.01,2013-07-24 06:04:00,
2013-07-23 23:09:00,72.1,43.7,29.68,South,169,0.0,0.0,36,0.00,,CLR,0.00,VWS V14.01,2013-07-24 06:09:00,
2013-07-23 23:14:00,72.0,45.0,29.67,South,169,0.0,0.0,38,0.00,,CLR,0.00,VWS V14.01,2013-07-24 06:14:00,
2013-07-23 23:19:00,71.8,42.0,29.67,South,169,0.0,0.0,34,0.00,,CLR,0.00,VWS V14.01,2013-07-24 06:19:00,
2013-07-23 23:24:00,71.5,44.6,29.67,South,169,0.0,0.0,38,0.00,,CLR,0.00,VWS V14.01,2013-07-24 06:24:00,
2013-07-23 23:29:00,71.3,40.7,29.67,South,169,0.0,0.0,33,0.00,,CLR,0.00,VWS V14.01,2013-07-24 06:29:00,
2013-07-23 23:34:00,71.1,43.5,29.67,South,169,0.0,0.0,37,0.00,,CLR,0.00,VWS V14.01,2013-07-24 06:34:00,
2013-07-23 23:39:00,70.9,41.9,29.67,South,169,0.0,0.0,35,0.00,,CLR,0.00,VWS V14.01,2013-07-24 06:39:00,
2013-07-23 23:44:00,70.4,43.6,29.67,South,169,0.0,0.0,38,0.00,,CLR,0.00,VWS V14.01,2013-07-24 06:44:00,
2013-07-23 23:49:00,70.1,41.2,29.67,South,169,0.0,0.0,35,0.00,,CLR,0.00,VWS V14.01,2013-07-24 06:49:00,
2013-07-23 23:54:00,70.1,43.3,29.67,South,169,0.0,0.0,38,0.00,,CLR,0.00,VWS V14.01,2013-07-24 06:54:00,